Custer, Kentucky
Current Conditions -  °F | °C
As of 10:19 AM on Monday 24 Nov 2014 (Local Time) from KFTK Reporting Station
Light Rain Light Rain  
Wind Chill: 37°   Ceiling: 1100
Heat Index: 45°   Visibility: 6mi
Dew Point: 41°   Wind: 18mph
Humidity: 87%   Direction: 260°W
Pressure: 29.65"   Gusts: 38mph
Location:  37.74°N, 86.25°W
Report Text: KFTK 241619Z AUTO 26016G33KT 6SM -RA BR OVC011 07/05 A2965 RMK AO2 PRESRR
Loading
Personal Weather Stations






























Interactive Weather Map New forecast layout! Learn more

10-Day Weather Forecast

Advertisements
Track Severe Weather on mobile